createdAt,value
2023-01-29T00:02:26.348Z,-1.21
2023-01-29T00:04:58.896Z,-1.10
2023-01-29T00:07:27.421Z,-1.03
2023-01-29T00:09:55.542Z,-1.17
2023-01-29T00:12:27.078Z,-1.13
2023-01-29T00:14:55.515Z,-1.09
2023-01-29T00:17:23.984Z,-1.21
2023-01-29T00:19:52.152Z,-0.97
2023-01-29T00:22:20.333Z,-0.99
2023-01-29T00:24:48.458Z,-1.10
2023-01-29T00:27:16.635Z,-1.00
2023-01-29T00:30:02.447Z,-0.98
2023-01-29T00:32:30.666Z,-0.98
2023-01-29T00:35:00.255Z,-0.98
2023-01-29T00:37:28.394Z,-0.90
2023-01-29T00:39:56.751Z,-0.98
2023-01-29T00:42:42.932Z,-1.08
2023-01-29T00:45:13.977Z,-1.01
2023-01-29T00:47:42.113Z,-0.95
2023-01-29T00:50:12.333Z,-1.02
2023-01-29T00:52:41.914Z,-0.86
2023-01-29T00:55:11.834Z,-1.13
2023-01-29T00:57:40.304Z,-1.10
2023-01-29T01:00:12.127Z,-1.09
2023-01-29T01:02:59.044Z,-1.02
2023-01-29T01:05:28.664Z,-0.99
2023-01-29T01:07:58.598Z,-0.85
2023-01-29T01:10:28.028Z,-0.91
2023-01-29T01:12:58.144Z,-0.97
2023-01-29T01:15:29.064Z,-0.99
2023-01-29T01:18:00.718Z,-0.88
2023-01-29T01:20:32.224Z,-0.98
2023-01-29T01:23:00.475Z,-0.91
2023-01-29T01:25:29.105Z,-0.98
2023-01-29T01:28:03.077Z,-0.89
2023-01-29T01:30:31.288Z,-0.79
2023-01-29T01:33:01.620Z,-0.96
2023-01-29T01:35:29.918Z,-0.91
2023-01-29T01:37:58.074Z,-0.92
2023-01-29T01:40:27.090Z,-0.87
2023-01-29T01:42:57.578Z,-0.90
2023-01-29T01:45:28.495Z,-0.92
2023-01-29T01:48:03.333Z,-0.95
2023-01-29T01:50:36.049Z,-0.96
2023-01-29T01:53:08.833Z,-0.91
2023-01-29T01:55:40.707Z,-0.83
2023-01-29T01:58:13.298Z,-0.92
2023-01-29T02:00:41.661Z,-0.86
2023-01-29T02:03:30.845Z,-0.76
2023-01-29T02:06:18.339Z,-1.02
2023-01-29T02:09:11.380Z,-0.96
2023-01-29T02:11:40.660Z,-0.90
2023-01-29T02:14:09.601Z,-0.93
2023-01-29T02:16:38.464Z,-0.92
2023-01-29T02:19:18.150Z,-0.88
2023-01-29T02:22:06.335Z,-0.91
2023-01-29T02:25:09.593Z,-0.81
2023-01-29T02:28:23.714Z,-0.85
2023-01-29T02:31:00.380Z,-0.85
2023-01-29T02:33:37.849Z,-0.87
2023-01-29T02:36:20.386Z,-0.85
2023-01-29T02:38:57.245Z,-0.88
2023-01-29T02:41:29.881Z,-0.93
2023-01-29T02:44:07.149Z,-1.02
2023-01-29T02:46:43.881Z,-0.97
2023-01-29T02:49:23.070Z,-0.82
2023-01-29T02:51:59.896Z,-1.01
2023-01-29T02:54:38.369Z,-0.90
2023-01-29T02:57:14.997Z,-0.83
2023-01-29T02:59:48.169Z,-0.77
2023-01-29T03:02:22.955Z,-0.92
2023-01-29T03:04:57.952Z,-1.09
2023-01-29T03:07:46.337Z,-0.95
2023-01-29T03:10:33.288Z,-1.00
2023-01-29T03:13:09.527Z,-1.08
2023-01-29T03:15:47.279Z,-0.95
2023-01-29T03:18:45.865Z,-0.95
2023-01-29T03:21:39.018Z,-0.90
2023-01-29T03:24:29.546Z,-0.90
2023-01-29T03:27:20.076Z,-0.83
2023-01-29T03:30:08.713Z,-0.81
2023-01-29T03:32:52.343Z,-0.97
2023-01-29T03:35:36.699Z,-0.89
2023-01-29T03:38:09.929Z,-0.80
2023-01-29T03:40:47.081Z,-0.87
2023-01-29T03:43:27.454Z,-0.90
2023-01-29T03:46:02.795Z,-0.89
2023-01-29T03:48:37.604Z,-0.93
2023-01-29T03:51:17.668Z,-0.96
2023-01-29T03:53:52.634Z,-1.01
2023-01-29T03:56:34.953Z,-1.05
2023-01-29T03:59:11.916Z,-0.97
2023-01-29T04:02:01.812Z,-1.08
2023-01-29T04:04:33.773Z,-1.03
2023-01-29T04:07:11.689Z,-1.17
2023-01-29T04:09:47.702Z,-1.00
2023-01-29T04:12:20.685Z,-1.12
2023-01-29T04:14:51.291Z,-1.08
2023-01-29T04:17:24.455Z,-1.05
2023-01-29T04:20:11.985Z,-1.13
2023-01-29T04:22:47.079Z,-1.15
2023-01-29T04:25:17.836Z,-1.16
2023-01-29T04:27:53.419Z,-1.06
2023-01-29T04:30:27.074Z,-1.01
2023-01-29T04:33:07.305Z,-1.03
2023-01-29T04:35:45.548Z,-0.96
2023-01-29T04:38:28.436Z,-1.07
2023-01-29T04:41:04.469Z,-1.07
2023-01-29T04:43:43.241Z,-1.20
2023-01-29T04:46:17.506Z,-1.17
2023-01-29T04:48:59.657Z,-1.08
2023-01-29T04:51:39.307Z,-1.06
2023-01-29T04:54:13.706Z,-1.22
2023-01-29T04:56:49.599Z,-1.06
2023-01-29T04:59:22.786Z,-1.05
2023-01-29T05:01:51.094Z,-0.96
2023-01-29T05:04:21.433Z,-1.06
2023-01-29T05:06:50.809Z,-1.03
2023-01-29T05:09:20.948Z,-0.83
2023-01-29T05:11:51.065Z,-0.98
2023-01-29T05:14:20.946Z,-0.71
2023-01-29T05:16:53.747Z,-0.93
2023-01-29T05:19:22.297Z,-0.72
2023-01-29T05:21:51.062Z,-0.71
2023-01-29T05:24:22.696Z,-0.79
2023-01-29T05:27:11.759Z,-0.71
2023-01-29T05:29:44.031Z,-0.72
2023-01-29T05:32:12.219Z,-0.71
2023-01-29T05:34:40.481Z,-0.69
2023-01-29T05:37:10.847Z,-0.68
2023-01-29T05:39:40.340Z,-0.81
2023-01-29T05:42:08.492Z,-0.82
2023-01-29T05:44:36.656Z,-0.84
2023-01-29T05:47:04.912Z,-0.85
2023-01-29T05:49:33.066Z,-1.03
2023-01-29T05:52:01.181Z,-0.83
2023-01-29T05:54:29.307Z,-0.92
2023-01-29T05:56:58.834Z,-0.98
2023-01-29T05:59:26.974Z,-1.00
2023-01-29T06:01:55.190Z,-1.00
2023-01-29T06:04:23.431Z,-0.89
2023-01-29T06:06:51.720Z,-0.96
2023-01-29T06:09:19.874Z,-0.94
2023-01-29T06:11:48.014Z,-0.95
2023-01-29T06:14:17.507Z,-0.92
2023-01-29T06:16:45.670Z,-1.06
2023-01-29T06:19:13.835Z,-0.95
2023-01-29T06:21:42.186Z,-0.87
2023-01-29T06:24:10.538Z,-0.94
2023-01-29T06:26:38.865Z,-0.89
2023-01-29T06:29:07.031Z,-0.95
2023-01-29T06:31:39.349Z,-0.81
2023-01-29T06:34:08.355Z,-0.88
2023-01-29T06:36:36.555Z,-0.96
2023-01-29T06:39:05.179Z,-0.80
2023-01-29T06:41:33.419Z,-0.95
2023-01-29T06:44:01.620Z,-0.92
2023-01-29T06:46:29.787Z,-0.86
2023-01-29T06:49:01.158Z,-0.82
2023-01-29T06:51:29.289Z,-0.80
2023-01-29T06:53:57.475Z,-0.77
2023-01-29T06:56:25.797Z,-0.77
2023-01-29T06:58:54.270Z,-0.74
2023-01-29T07:01:35.264Z,-0.78
2023-01-29T07:04:06.144Z,-0.78
2023-01-29T07:06:35.413Z,-0.76
2023-01-29T07:09:03.765Z,-0.68
2023-01-29T07:11:32.197Z,-0.80
2023-01-29T07:14:00.359Z,-0.81
2023-01-29T07:16:28.561Z,-0.82
2023-01-29T07:18:56.788Z,-0.83
2023-01-29T07:21:26.448Z,-0.79
2023-01-29T07:23:54.976Z,-0.79
2023-01-29T07:26:23.239Z,-0.73
2023-01-29T07:28:51.497Z,-0.64
2023-01-29T07:31:19.746Z,-0.59
2023-01-29T07:33:48.034Z,-0.60
2023-01-29T07:36:16.611Z,-0.57
2023-01-29T07:38:50.097Z,-0.64
2023-01-29T07:41:18.469Z,-0.52
2023-01-29T07:43:47.953Z,-0.55
2023-01-29T07:46:16.173Z,-0.33
2023-01-29T07:48:44.459Z,-0.35
2023-01-29T07:51:12.627Z,-0.35
2023-01-29T07:53:40.800Z,-0.36
2023-01-29T07:56:10.418Z,-0.30
2023-01-29T07:58:38.560Z,-0.31
2023-01-29T08:01:08.369Z,-0.35
2023-01-29T08:03:36.936Z,-0.40
2023-01-29T08:06:06.476Z,-0.19
2023-01-29T08:08:35.068Z,-0.22
2023-01-29T08:11:03.832Z,-0.13
2023-01-29T08:13:34.205Z,-0.39
2023-01-29T08:16:03.080Z,-0.22
2023-01-29T08:18:32.183Z,-0.18
2023-01-29T08:21:01.773Z,-0.15
2023-01-29T08:23:30.354Z,-0.06
2023-01-29T08:25:58.909Z,-0.22
2023-01-29T08:28:27.103Z,-0.15
2023-01-29T08:30:56.923Z,-0.22
2023-01-29T08:33:37.911Z,-0.18
2023-01-29T08:36:08.392Z,-0.15
2023-01-29T08:38:37.235Z,-0.18
2023-01-29T08:41:05.994Z,-0.11
2023-01-29T08:43:35.261Z,-0.14
2023-01-29T08:46:06.309Z,-0.14
2023-01-29T08:48:34.999Z,-0.08
2023-01-29T08:51:04.495Z,0.12
2023-01-29T08:53:33.311Z,0.09
2023-01-29T08:56:01.517Z,0.16
2023-01-29T08:58:29.774Z,0.10
2023-01-29T09:00:58.023Z,0.13
2023-01-29T09:03:27.474Z,-0.03
2023-01-29T09:05:55.589Z,0.11
2023-01-29T09:08:24.057Z,0.16
2023-01-29T09:10:52.176Z,0.14
2023-01-29T09:13:20.518Z,0.14
2023-01-29T09:15:48.614Z,0.09
2023-01-29T09:18:16.736Z,0.10
2023-01-29T09:20:46.167Z,0.12
2023-01-29T09:23:14.288Z,0.13
2023-01-29T09:25:43.718Z,0.11
2023-01-29T09:28:12.041Z,0.09
2023-01-29T09:30:40.244Z,0.18
2023-01-29T09:33:08.802Z,0.20
2023-01-29T09:35:36.952Z,0.28
2023-01-29T09:38:06.379Z,0.28
2023-01-29T09:44:49.865Z,0.16
2023-01-29T09:47:19.323Z,0.27
2023-01-29T09:49:50.348Z,0.28
2023-01-29T09:52:23.131Z,0.38
2023-01-29T09:55:00.641Z,0.16
2023-01-29T09:57:35.416Z,0.29
2023-01-29T10:00:03.619Z,0.20
2023-01-29T10:02:54.559Z,0.31
2023-01-29T10:05:36.303Z,0.31
2023-01-29T10:08:24.665Z,0.38
2023-01-29T10:11:03.403Z,0.45
2023-01-29T10:13:45.170Z,0.32
2023-01-29T10:16:37.221Z,0.35
2023-01-29T10:19:40.312Z,0.36
2023-01-29T10:22:38.289Z,0.53
2023-01-29T10:25:11.493Z,0.55
2023-01-29T10:27:44.509Z,0.65
2023-01-29T10:30:27.017Z,0.61
2023-01-29T10:32:56.398Z,0.67
2023-01-29T10:35:29.672Z,0.72
2023-01-29T10:38:03.142Z,0.53
2023-01-29T10:40:39.523Z,0.61
2023-01-29T10:43:15.310Z,0.71
2023-01-29T10:45:50.397Z,0.77
2023-01-29T10:48:38.418Z,0.72
2023-01-29T10:51:18.203Z,0.60
2023-01-29T10:53:58.303Z,0.75
2023-01-29T10:56:51.428Z,0.95
2023-01-29T10:59:36.317Z,0.89
2023-01-29T11:02:14.904Z,0.83
2023-01-29T11:04:43.582Z,0.95
2023-01-29T11:07:12.104Z,0.87
2023-01-29T11:09:45.219Z,0.87
2023-01-29T11:12:16.440Z,0.98
2023-01-29T11:14:51.716Z,0.97
2023-01-29T11:17:21.626Z,0.98
2023-01-29T11:19:51.970Z,0.95
2023-01-29T11:22:21.854Z,1.04
2023-01-29T11:25:10.106Z,1.11
2023-01-29T11:27:44.305Z,1.19
2023-01-29T11:30:24.284Z,1.30
2023-01-29T11:33:00.026Z,1.32
2023-01-29T11:35:30.234Z,1.33
2023-01-29T11:38:08.741Z,1.54
2023-01-29T11:40:39.896Z,1.68
2023-01-29T11:43:37.725Z,1.66
2023-01-29T11:46:14.627Z,1.69
2023-01-29T11:49:34.565Z,1.81
2023-01-29T11:52:11.102Z,1.80
2023-01-29T11:54:46.522Z,2.11
2023-01-29T11:57:27.462Z,1.88
2023-01-29T12:00:27.209Z,2.04
2023-01-29T12:03:01.096Z,1.92
2023-01-29T12:05:29.433Z,2.01
2023-01-29T12:07:59.937Z,1.85
2023-01-29T12:10:33.207Z,1.86
2023-01-29T12:13:19.019Z,1.98
2023-01-29T12:15:48.617Z,2.14
2023-01-29T12:18:26.966Z,2.16
2023-01-29T12:20:58.602Z,2.27
2023-01-29T12:23:36.260Z,2.10
2023-01-29T12:26:10.563Z,2.16
2023-01-29T12:28:49.446Z,2.14
2023-01-29T12:31:27.954Z,2.25
2023-01-29T12:34:06.544Z,2.35
2023-01-29T12:36:41.252Z,2.35
2023-01-29T12:39:11.789Z,2.38
2023-01-29T12:41:46.053Z,2.45
2023-01-29T12:44:19.021Z,2.56
2023-01-29T12:46:53.217Z,2.54
2023-01-29T12:49:25.858Z,2.42
2023-01-29T12:51:59.890Z,2.31
2023-01-29T12:54:34.038Z,2.45
2023-01-29T12:57:08.051Z,2.42
2023-01-29T12:59:42.814Z,2.51
2023-01-29T13:02:24.620Z,2.56
2023-01-29T13:04:58.834Z,2.32
2023-01-29T13:07:34.082Z,2.31
2023-01-29T13:10:08.695Z,2.35
2023-01-29T13:12:40.354Z,2.33
2023-01-29T13:15:23.015Z,2.11
2023-01-29T13:17:56.486Z,2.21
2023-01-29T13:20:31.121Z,2.33
2023-01-29T13:23:05.378Z,2.38
2023-01-29T13:25:33.504Z,2.45
2023-01-29T13:28:01.697Z,2.34
2023-01-29T13:30:32.620Z,2.26
2023-01-29T13:33:10.343Z,2.23
2023-01-29T13:35:43.113Z,2.15
2023-01-29T13:38:25.340Z,2.29
2023-01-29T13:40:57.164Z,2.23
2023-01-29T13:43:25.396Z,2.25
2023-01-29T13:45:55.621Z,2.31
2023-01-29T13:48:27.911Z,2.40
2023-01-29T13:51:02.184Z,2.40
2023-01-29T13:53:37.056Z,2.37
2023-01-29T13:56:31.551Z,2.35
2023-01-29T13:59:00.792Z,2.43
2023-01-29T14:02:04.763Z,2.38
2023-01-29T14:04:34.115Z,2.32
2023-01-29T14:07:23.884Z,2.36
2023-01-29T14:10:14.337Z,2.25
2023-01-29T14:12:44.758Z,2.34
2023-01-29T14:15:34.346Z,2.32
2023-01-29T14:18:21.170Z,2.24
2023-01-29T14:20:58.668Z,2.34
2023-01-29T14:23:36.666Z,2.26
2023-01-29T14:26:19.599Z,2.06
2023-01-29T14:28:54.851Z,2.00
2023-01-29T14:31:32.681Z,2.04
2023-01-29T14:34:03.056Z,1.84
2023-01-29T14:36:39.790Z,1.73
2023-01-29T14:39:20.124Z,1.81
2023-01-29T14:41:51.500Z,1.67
2023-01-29T14:44:48.858Z,1.66
2023-01-29T14:47:20.994Z,1.48
2023-01-29T14:49:51.271Z,1.54
2023-01-29T14:52:22.992Z,1.50
2023-01-29T14:54:54.109Z,1.56
2023-01-29T14:57:25.073Z,1.61
2023-01-29T14:59:57.953Z,1.47
2023-01-29T15:02:33.708Z,1.50
2023-01-29T15:05:05.339Z,1.42
2023-01-29T15:07:38.165Z,1.50
2023-01-29T15:10:22.641Z,1.48
2023-01-29T15:12:58.207Z,1.33
2023-01-29T15:15:37.240Z,1.28
2023-01-29T15:18:09.027Z,1.21
2023-01-29T15:20:39.103Z,1.22
2023-01-29T15:23:25.102Z,1.14
2023-01-29T15:25:56.464Z,1.19
2023-01-29T15:28:26.191Z,1.13
2023-01-29T15:30:57.009Z,1.12
2023-01-29T15:33:25.984Z,1.10
2023-01-29T15:36:06.725Z,1.14
2023-01-29T15:38:36.188Z,1.00
2023-01-29T15:41:17.028Z,0.91
2023-01-29T15:43:50.324Z,0.86
2023-01-29T15:46:23.792Z,0.90
2023-01-29T15:48:53.961Z,0.98
2023-01-29T15:51:25.204Z,0.86
2023-01-29T15:53:59.642Z,0.77
2023-01-29T15:56:30.367Z,0.78
2023-01-29T15:59:04.061Z,0.64
2023-01-29T16:01:34.059Z,0.67
2023-01-29T16:04:03.509Z,0.75
2023-01-29T16:06:37.720Z,0.88
2023-01-29T16:09:06.906Z,0.83
2023-01-29T16:11:36.199Z,0.73
2023-01-29T16:14:07.093Z,0.77
2023-01-29T16:16:35.696Z,0.75
2023-01-29T16:19:15.146Z,0.74
2023-01-29T16:21:45.968Z,0.83
2023-01-29T16:24:22.251Z,0.81
2023-01-29T16:26:52.679Z,0.66
2023-01-29T16:29:25.728Z,0.81
2023-01-29T16:32:00.527Z,0.65
2023-01-29T16:34:32.802Z,0.71
2023-01-29T16:37:02.539Z,0.67
2023-01-29T16:39:34.339Z,0.78
2023-01-29T16:42:23.182Z,0.76
2023-01-29T16:44:58.186Z,0.79
2023-01-29T16:47:34.798Z,0.78
2023-01-29T16:50:23.909Z,0.72
2023-01-29T16:53:02.219Z,0.75
2023-01-29T16:55:37.439Z,0.79
2023-01-29T16:58:14.185Z,0.72
2023-01-29T17:00:47.994Z,0.68
2023-01-29T17:03:18.109Z,0.70
2023-01-29T17:05:46.865Z,0.68
2023-01-29T17:08:22.802Z,0.78
2023-01-29T17:10:52.016Z,0.76
2023-01-29T17:13:28.278Z,0.72
2023-01-29T17:16:03.254Z,0.72
2023-01-29T17:18:31.868Z,0.77
2023-01-29T17:21:00.362Z,0.66
2023-01-29T17:23:28.646Z,0.58
2023-01-29T17:25:56.924Z,0.72
2023-01-29T17:28:25.112Z,0.63
2023-01-29T17:31:05.340Z,0.66
2023-01-29T17:33:36.647Z,0.62
2023-01-29T17:36:05.392Z,0.65
2023-01-29T17:38:34.175Z,0.62
2023-01-29T17:41:06.828Z,0.68
2023-01-29T17:43:35.448Z,0.60
2023-01-29T17:46:04.217Z,0.60
2023-01-29T17:48:32.781Z,0.64
2023-01-29T17:51:05.231Z,0.60
2023-01-29T17:53:45.180Z,0.75
2023-01-29T17:56:17.108Z,0.61
2023-01-29T17:58:45.363Z,0.70
2023-01-29T18:01:13.637Z,0.65
2023-01-29T18:03:41.994Z,0.49
2023-01-29T18:06:16.603Z,0.58
2023-01-29T18:08:44.861Z,0.48
2023-01-29T18:11:13.745Z,0.60
2023-01-29T18:13:42.153Z,0.58
2023-01-29T18:16:10.504Z,0.52
2023-01-29T18:18:39.042Z,0.50
2023-01-29T18:21:07.841Z,0.63
2023-01-29T18:23:37.424Z,0.69
2023-01-29T18:26:07.496Z,0.59
2023-01-29T18:28:35.757Z,0.57
2023-01-29T18:31:04.266Z,0.60
2023-01-29T18:33:34.246Z,0.45
2023-01-29T18:36:04.869Z,0.53
2023-01-29T18:38:34.153Z,0.46
2023-01-29T18:41:10.526Z,0.51
2023-01-29T18:43:39.716Z,0.51
2023-01-29T18:46:08.536Z,0.55
2023-01-29T18:48:37.292Z,0.48
2023-01-29T18:51:06.068Z,0.51
2023-01-29T18:53:34.457Z,0.55
2023-01-29T18:56:04.943Z,0.61
2023-01-29T18:58:37.058Z,0.64
2023-01-29T19:01:09.286Z,0.55
2023-01-29T19:03:38.148Z,0.67
2023-01-29T19:06:08.617Z,0.67
2023-01-29T19:08:36.936Z,0.60
2023-01-29T19:11:08.200Z,0.60
2023-01-29T19:13:38.904Z,0.57
2023-01-29T19:16:09.060Z,0.62
2023-01-29T19:18:37.610Z,0.57
2023-01-29T19:21:10.122Z,0.57
2023-01-29T19:23:38.319Z,0.59
2023-01-29T19:26:07.569Z,0.58
2023-01-29T19:28:35.771Z,0.66
2023-01-29T19:31:05.959Z,0.72
2023-01-29T19:33:34.895Z,0.68
2023-01-29T19:36:03.386Z,0.55
2023-01-29T19:38:33.591Z,0.67
2023-01-29T19:41:01.764Z,0.65
2023-01-29T19:43:31.453Z,0.66
2023-01-29T19:46:00.878Z,0.46
2023-01-29T19:48:31.017Z,0.49
2023-01-29T19:51:00.951Z,0.53
2023-01-29T19:53:30.223Z,0.53
2023-01-29T19:55:59.883Z,0.50
2023-01-29T19:58:29.200Z,0.57
2023-01-29T20:00:58.337Z,0.59
2023-01-29T20:03:27.811Z,0.53
2023-01-29T20:05:57.903Z,0.61
2023-01-29T20:08:26.189Z,0.56
2023-01-29T20:10:54.363Z,0.52
2023-01-29T20:13:22.689Z,0.56
2023-01-29T20:15:52.911Z,0.60
2023-01-29T20:18:21.214Z,0.57
2023-01-29T20:20:52.980Z,0.61
2023-01-29T20:23:36.621Z,0.61
2023-01-29T20:26:06.295Z,0.56
2023-01-29T20:28:34.656Z,0.56
2023-01-29T20:31:03.455Z,0.61
2023-01-29T20:33:32.124Z,0.61
2023-01-29T20:36:02.016Z,0.62
2023-01-29T20:38:31.972Z,0.64
2023-01-29T20:41:04.887Z,0.57
2023-01-29T20:43:33.457Z,0.59
2023-01-29T20:46:02.513Z,0.50
2023-01-29T20:48:31.967Z,0.56
2023-01-29T20:51:05.320Z,0.54
2023-01-29T20:53:35.046Z,0.53
2023-01-29T20:56:04.853Z,0.53
2023-01-29T20:58:33.564Z,0.51
2023-01-29T21:01:02.605Z,0.56
2023-01-29T21:03:30.837Z,0.65
2023-01-29T21:05:59.688Z,0.59
2023-01-29T21:08:28.089Z,0.62
2023-01-29T21:10:57.573Z,0.59
2023-01-29T21:13:25.895Z,0.55
2023-01-29T21:15:54.278Z,0.54
2023-01-29T21:18:22.435Z,0.52
2023-01-29T21:20:50.965Z,0.47
2023-01-29T21:23:19.148Z,0.55
2023-01-29T21:25:48.101Z,0.56
2023-01-29T21:28:17.939Z,0.56
2023-01-29T21:30:46.494Z,0.59
2023-01-29T21:33:14.729Z,0.47
2023-01-29T21:35:42.894Z,0.57
2023-01-29T21:38:11.127Z,0.54
2023-01-29T21:40:39.397Z,0.53
2023-01-29T21:43:12.643Z,0.52
2023-01-29T21:45:42.682Z,0.48
2023-01-29T21:48:12.345Z,0.52
2023-01-29T21:50:40.588Z,0.59
2023-01-29T21:53:08.732Z,0.60
2023-01-29T21:55:36.909Z,0.59
2023-01-29T21:58:05.039Z,0.51
2023-01-29T22:00:33.727Z,0.50
2023-01-29T22:03:03.540Z,0.49
2023-01-29T22:05:31.796Z,0.54
2023-01-29T22:08:00.007Z,0.52
2023-01-29T22:10:28.653Z,0.62
2023-01-29T22:12:57.806Z,0.62
2023-01-29T22:15:25.981Z,0.59
2023-01-29T22:17:54.216Z,0.61
2023-01-29T22:20:29.770Z,0.54
2023-01-29T22:23:00.412Z,0.53
2023-01-29T22:25:29.220Z,0.53
2023-01-29T22:27:57.614Z,0.52
2023-01-29T22:30:25.927Z,0.59
2023-01-29T22:32:54.534Z,0.56
2023-01-29T22:35:24.224Z,0.68
2023-01-29T22:37:52.496Z,0.69
2023-01-29T22:40:21.123Z,0.66
2023-01-29T22:42:49.495Z,0.77
2023-01-29T22:45:18.029Z,0.77
2023-01-29T22:47:46.216Z,0.70
2023-01-29T22:50:14.679Z,0.77
2023-01-29T22:52:53.618Z,0.76
2023-01-29T22:55:22.451Z,0.82
2023-01-29T22:57:51.345Z,0.74
2023-01-29T23:00:20.484Z,0.74
2023-01-29T23:02:49.226Z,0.75
2023-01-29T23:05:18.923Z,0.78
2023-01-29T23:07:48.494Z,0.79
2023-01-29T23:10:17.807Z,0.81
2023-01-29T23:12:46.196Z,0.76
2023-01-29T23:15:14.431Z,0.74
2023-01-29T23:17:42.763Z,0.77
2023-01-29T23:20:12.562Z,0.78
2023-01-29T23:22:40.765Z,0.75
2023-01-29T23:25:10.934Z,0.66
2023-01-29T23:27:38.202Z,0.68
2023-01-29T23:30:08.309Z,0.79
2023-01-29T23:32:36.810Z,0.67
2023-01-29T23:35:05.542Z,0.64
2023-01-29T23:37:34.433Z,0.74
2023-01-29T23:40:03.054Z,0.73
2023-01-29T23:42:32.763Z,0.66
2023-01-29T23:45:01.037Z,0.76
2023-01-29T23:47:29.201Z,0.80
2023-01-29T23:49:57.393Z,0.83
2023-01-29T23:52:25.682Z,0.74
2023-01-29T23:54:53.846Z,0.79
2023-01-29T23:57:22.146Z,0.72
2023-01-29T23:59:51.882Z,0.66
